Time;durP1;ratioP1;P1;durP2;ratioP2;P2;SDS_P1;SDS_P2;PMS_P1;PMS_P2;Temp;Humidity;BMP_temperature;BMP_pressure;BME280_temperature;BME280_humidity;BME280_pressure;Samples;Min_cycle;Max_cycle;Signal;HPM_P1;HPM_P2
2022/10/03 00:00:17;;;;;;;;;;;;;;;14.38;55.38;100717.84;5099233;28;19916;-86
2022/10/03 00:02:58;;;;;;;;;;;;;;;14.38;55.63;100715.13;5067391;28;19984;-83
2022/10/03 00:05:30;;;;;;;;;;;;;;;14.43;55.31;100716.25;5107010;28;20478;-85
2022/10/03 00:08:12;;;;;;;;;;;;;;;14.42;55.05;100711.88;5099172;28;20039;-87
2022/10/03 00:10:47;;;;;;;;;;;;;;;14.30;55.40;100707.91;5075804;28;20002;-86
2022/10/03 00:13:18;;;;;;;;;;;;;;;14.34;55.29;100720.06;5074020;28;19927;-86
2022/10/03 00:16:02;;;;;;;;;;;;;;;14.23;55.80;100704.28;5091991;28;20367;-87
2022/10/03 00:18:34;;;;;;;;;;;;;;;14.25;55.79;100710.34;5087349;28;19959;-86
2022/10/03 00:21:00;;;;;;;;;;;;;;;14.15;55.99;100714.13;5092070;28;19920;-86
2022/10/03 00:23:25;;;;;;;;;;;;;;;14.19;55.74;100705.66;5093217;28;20003;-87
2022/10/03 00:25:50;;;;;;;;;;;;;;;14.27;55.37;100705.59;5074383;28;19986;-88
2022/10/03 00:28:34;;;;;;;;;;;;;;;14.26;55.55;100707.47;5092813;28;19920;-86
2022/10/03 00:31:00;;;;;;;;;;;;;;;14.24;55.50;100703.25;5091650;28;19916;-87
2022/10/03 00:33:28;;;;;;;;;;;;;;;14.23;55.37;100696.16;5092585;28;19926;-87
2022/10/03 00:35:53;;;;;;;;;;;;;;;14.27;55.65;100686.66;5074971;28;19943;-87
2022/10/03 00:38:26;;;;;;;;;;;;;;;14.25;55.46;100692.25;5091507;28;20380;-87
2022/10/03 00:40:59;;;;;;;;;;;;;;;14.29;55.48;100690.03;5084509;28;19977;-87
2022/10/03 00:43:49;;;;;;;;;;;;;;;14.26;55.62;100679.59;5090564;28;20007;-87
2022/10/03 00:46:24;;;;;;;;;;;;;;;14.23;55.73;100679.94;5082592;28;19916;-88
2022/10/03 00:49:08;;;;;;;;;;;;;;;14.26;55.37;100674.19;5074096;28;19920;-88
2022/10/03 00:51:49;;;;;;;;;;;;;;;14.30;55.45;100675.47;5091193;28;19985;-88
2022/10/03 00:54:36;;;;;;;;;;;;;;;14.25;55.45;100678.72;5091917;28;19924;-87
2022/10/03 00:57:01;;;;;;;;;;;;;;;14.19;55.89;100675.91;5065692;28;20425;-88
2022/10/03 00:59:33;;;;;;;;;;;;;;;14.23;55.85;100679.94;5092004;28;19920;-88
2022/10/03 01:01:58;;;;;;;;;;;;;;;14.15;56.02;100684.41;5097683;28;19916;-88
2022/10/03 01:04:30;;;;;;;;;;;;;;;14.16;56.02;100690.63;5088675;28;19931;-87
2022/10/03 01:07:02;;;;;;;;;;;;;;;14.14;56.17;100681.88;5085433;28;19920;-87
2022/10/03 01:09:30;;;;;;;;;;;;;;;14.21;55.91;100684.69;5074966;28;19963;-86
2022/10/03 01:11:59;;;;;;;;;;;;;;;14.13;56.20;100680.19;5077727;28;19962;-87
2022/10/03 01:14:24;;;;;;;;;;;;;;;14.11;56.32;100683.06;5090652;28;19923;-88
2022/10/03 01:16:55;;;;;;;;;;;;;;;14.06;56.51;100681.97;5093433;28;19920;-87
2022/10/03 01:19:39;;;;;;;;;;;;;;;13.99;56.51;100672.91;5092103;28;20023;-88
2022/10/03 01:22:19;;;;;;;;;;;;;;;14.09;56.78;100677.03;5054891;28;19951;-87
2022/10/03 01:24:44;;;;;;;;;;;;;;;14.01;56.50;100671.69;5073051;28;19981;-88
2022/10/03 01:27:10;;;;;;;;;;;;;;;14.01;56.85;100673.56;5065098;28;19920;-88
2022/10/03 01:32:54;;;;;;;;;;;;;;;13.97;56.83;100674.94;5076674;28;19927;-87
2022/10/03 01:35:27;;;;;;;;;;;;;;;13.93;57.07;100671.78;5071478;28;19922;-87
2022/10/03 01:37:56;;;;;;;;;;;;;;;13.94;57.10;100666.19;5075505;28;19916;-87
2022/10/03 01:40:28;;;;;;;;;;;;;;;14.02;57.16;100669.81;5091268;28;19935;-87
2022/10/03 01:42:53;;;;;;;;;;;;;;;14.01;56.75;100666.28;5073512;28;19924;-88
2022/10/03 01:45:28;;;;;;;;;;;;;;;14.03;56.96;100663.41;5074111;28;19916;-88
2022/10/03 01:48:01;;;;;;;;;;;;;;;14.04;56.91;100660.50;5091948;28;19919;-88
2022/10/03 01:50:30;;;;;;;;;;;;;;;13.87;57.23;100654.41;5077426;28;20467;-87
2022/10/03 01:53:13;;;;;;;;;;;;;;;13.88;57.47;100660.66;5074963;28;20034;-88
2022/10/03 01:55:57;;;;;;;;;;;;;;;13.88;57.28;100656.13;5056124;28;19964;-88
2022/10/03 01:58:28;;;;;;;;;;;;;;;13.76;57.86;100654.84;5080291;28;19920;-88
2022/10/03 02:01:09;;;;;;;;;;;;;;;13.78;57.82;100646.56;5074426;28;19920;-87
2022/10/03 02:04:00;;;;;;;;;;;;;;;13.78;57.77;100633.91;5084646;28;19920;-86
2022/10/03 02:06:35;;;;;;;;;;;;;;;13.74;58.11;100632.56;5080905;28;19959;-88
2022/10/03 02:09:07;;;;;;;;;;;;;;;13.71;58.11;100631.06;5056385;28;19924;-88
2022/10/03 02:11:43;;;;;;;;;;;;;;;13.67;58.37;100629.78;5051132;28;19942;-88
2022/10/03 02:14:08;;;;;;;;;;;;;;;13.66;58.24;100635.34;5087631;28;20337;-89
2022/10/03 02:16:43;;;;;;;;;;;;;;;13.65;58.04;100639.06;5075210;28;20375;-89
2022/10/03 02:19:11;;;;;;;;;;;;;;;13.62;58.18;100651.06;5070379;28;19916;-89
2022/10/03 02:21:45;;;;;;;;;;;;;;;13.61;58.41;100656.69;5089051;28;19923;-89
2022/10/03 02:24:10;;;;;;;;;;;;;;;13.58;58.24;100655.19;5083487;28;19922;-88
2022/10/03 02:27:14;;;;;;;;;;;;;;;13.52;58.70;100655.91;5093055;28;19920;-88
2022/10/03 02:29:42;;;;;;;;;;;;;;;13.43;58.97;100657.81;5010058;28;19925;-89
2022/10/03 02:32:26;;;;;;;;;;;;;;;13.43;59.04;100656.97;5017156;28;19930;-89
2022/10/03 02:35:00;;;;;;;;;;;;;;;13.33;59.20;100653.69;5070357;28;19908;-89
2022/10/03 02:37:40;;;;;;;;;;;;;;;13.41;59.39;100653.59;5064151;28;19931;-88
2022/10/03 02:40:06;;;;;;;;;;;;;;;13.29;59.51;100650.47;5093346;28;20396;-89
2022/10/03 02:42:37;;;;;;;;;;;;;;;13.33;59.44;100651.81;5111392;28;19921;-88
2022/10/03 02:45:23;;;;;;;;;;;;;;;13.24;59.81;100653.69;5095173;28;19960;-88
2022/10/03 02:48:07;;;;;;;;;;;;;;;13.24;59.81;100666.34;5050057;28;19963;-88
2022/10/03 02:50:53;;;;;;;;;;;;;;;13.24;59.42;100674.44;5097335;28;20398;-88
2022/10/03 02:53:32;;;;;;;;;;;;;;;13.13;60.51;100672.97;5085406;28;19920;-88
2022/10/03 02:56:06;;;;;;;;;;;;;;;13.03;61.35;100683.16;5089572;28;19920;-87
2022/10/03 02:58:32;;;;;;;;;;;;;;;13.03;61.50;100683.16;5067679;28;19920;-88
2022/10/03 03:01:16;;;;;;;;;;;;;;;12.86;62.13;100691.34;5091267;28;19920;-88
2022/10/03 03:03:56;;;;;;;;;;;;;;;12.74;62.30;100684.66;5103025;28;19925;-89
2022/10/03 03:06:48;;;;;;;;;;;;;;;12.80;61.91;100689.31;5077515;28;19920;-89
2022/10/03 03:09:16;;;;;;;;;;;;;;;12.66;62.19;100687.34;5074257;28;20392;-88
2022/10/03 03:11:42;;;;;;;;;;;;;;;12.63;62.26;100676.94;5093478;28;20004;-89
2022/10/03 03:14:26;;;;;;;;;;;;;;;12.57;61.97;100672.22;5077493;28;20284;-88
2022/10/03 03:16:56;;;;;;;;;;;;;;;12.56;62.14;100668.69;5075044;28;20011;-88
2022/10/03 03:19:31;;;;;;;;;;;;;;;12.59;61.88;100667.50;5081001;28;19920;-88
2022/10/03 03:22:00;;;;;;;;;;;;;;;12.56;62.46;100660.59;5076851;28;19920;-88
2022/10/03 03:24:38;;;;;;;;;;;;;;;12.59;62.10;100664.78;5073184;28;19924;-87
2022/10/03 03:27:12;;;;;;;;;;;;;;;12.55;61.84;100664.31;5056404;28;19951;-88
2022/10/03 03:29:41;;;;;;;;;;;;;;;12.49;62.14;100669.56;5074293;28;19927;-88
2022/10/03 03:32:33;;;;;;;;;;;;;;;12.42;62.25;100664.84;5093180;28;19923;-88
2022/10/03 03:35:18;;;;;;;;;;;;;;;12.41;62.19;100659.66;5062184;28;20297;-89
2022/10/03 03:38:18;;;;;;;;;;;;;;;12.40;62.11;100658.78;5091746;28;20359;-88
2022/10/03 03:40:45;;;;;;;;;;;;;;;12.43;62.02;100657.59;5027078;28;19937;-88
2022/10/03 03:43:11;;;;;;;;;;;;;;;12.40;62.21;100658.78;5077566;28;20384;-87
2022/10/03 03:45:39;;;;;;;;;;;;;;;12.32;62.13;100656.13;5094345;28;19922;-89
2022/10/03 03:48:25;;;;;;;;;;;;;;;12.41;62.17;100656.97;5076975;28;19987;-87
2022/10/03 03:50:51;;;;;;;;;;;;;;;12.38;61.92;100652.72;5088590;28;19974;-87
2022/10/03 03:53:28;;;;;;;;;;;;;;;12.34;61.97;100655.94;5093741;28;19912;-88
2022/10/03 03:56:14;;;;;;;;;;;;;;;12.30;62.22;100643.84;5091568;28;20445;-89
2022/10/03 03:58:42;;;;;;;;;;;;;;;12.29;62.24;100637.63;5102228;28;19931;-88
2022/10/03 04:01:16;;;;;;;;;;;;;;;12.30;62.13;100633.88;5106936;28;20033;-88
2022/10/03 04:03:47;;;;;;;;;;;;;;;12.25;62.28;100630.88;5104402;28;19983;-88
2022/10/03 04:06:13;;;;;;;;;;;;;;;12.30;62.25;100631.19;5085530;28;20434;-87
2022/10/03 04:08:41;;;;;;;;;;;;;;;12.36;62.07;100627.81;5093489;28;20023;-87
2022/10/03 04:11:16;;;;;;;;;;;;;;;12.40;62.05;100633.69;5073738;28;20351;-88
2022/10/03 04:13:48;;;;;;;;;;;;;;;12.37;62.07;100626.78;5070172;28;19923;-89
2022/10/03 04:16:16;;;;;;;;;;;;;;;12.37;61.99;100623.25;5075422;28;20011;-88
2022/10/03 04:18:56;;;;;;;;;;;;;;;12.38;62.17;100604.19;5087595;28;19954;-88
2022/10/03 04:21:27;;;;;;;;;;;;;;;12.32;61.89;100604.06;5071617;28;19920;-86
2022/10/03 04:24:05;;;;;;;;;;;;;;;12.37;62.02;100615.16;5093921;28;19920;-87
2022/10/03 04:26:45;;;;;;;;;;;;;;;12.37;62.02;100621.41;5083028;28;19931;-87
2022/10/03 04:29:10;;;;;;;;;;;;;;;12.38;62.03;100623.06;5077445;28;19920;-89
2022/10/03 04:31:40;;;;;;;;;;;;;;;12.39;62.04;100624.75;5074464;28;19926;-89
2022/10/03 04:34:08;;;;;;;;;;;;;;;12.49;61.50;100627.25;5101773;28;19920;-89
2022/10/03 04:36:52;;;;;;;;;;;;;;;12.53;61.38;100625.06;5096398;28;20402;-87
2022/10/03 04:39:26;;;;;;;;;;;;;;;12.49;61.96;100631.81;5093287;28;19927;-89
2022/10/03 04:41:53;;;;;;;;;;;;;;;12.57;61.76;100629.06;5087940;28;19920;-87
2022/10/03 04:44:34;;;;;;;;;;;;;;;12.62;61.19;100624.00;5074238;28;19920;-89
2022/10/03 04:47:01;;;;;;;;;;;;;;;12.65;61.24;100620.97;5069838;28;19920;-88
2022/10/03 04:49:27;;;;;;;;;;;;;;;12.61;61.35;100633.09;5079593;28;19993;-86
2022/10/03 04:52:15;;;;;;;;;;;;;;;12.57;61.16;100624.53;5093962;28;19920;-89
2022/10/03 04:54:47;;;;;;;;;;;;;;;12.74;60.64;100608.28;5049232;28;19924;-89
2022/10/03 04:57:31;;;;;;;;;;;;;;;12.82;60.39;100611.75;5069992;28;19938;-89
2022/10/03 05:00:15;;;;;;;;;;;;;;;12.83;60.69;100605.34;5086994;28;19977;-90
2022/10/03 05:02:59;;;;;;;;;;;;;;;12.92;59.97;100602.59;5089235;28;19967;-90
2022/10/03 05:05:27;;;;;;;;;;;;;;;13.01;59.74;100593.44;5089927;28;19920;-86
2022/10/03 05:08:11;;;;;;;;;;;;;;;12.96;59.85;100598.53;5085223;28;20065;-92
2022/10/03 05:10:46;;;;;;;;;;;;;;;13.05;59.58;100592.06;5080428;28;19935;-90
2022/10/03 05:13:31;;;;;;;;;;;;;;;13.18;59.08;100594.16;5101554;28;19927;-93
2022/10/03 05:16:15;;;;;;;;;;;;;;;13.31;58.58;100580.94;5101303;28;19916;-92
2022/10/03 05:18:42;;;;;;;;;;;;;;;13.43;58.03;100584.06;5101112;28;19927;-95
2022/10/03 05:21:26;;;;;;;;;;;;;;;13.48;57.70;100589.75;5079955;28;19908;-96
2022/10/03 05:24:02;;;;;;;;;;;;;;;13.60;57.67;100598.25;5093501;28;19973;-91
2022/10/03 05:26:51;;;;;;;;;;;;;;;13.69;57.49;100598.00;5045528;22;19961;-90
2022/10/03 05:29:16;;;;;;;;;;;;;;;13.64;57.52;100605.81;4988754;28;19969;-90
2022/10/03 05:32:07;;;;;;;;;;;;;;;13.61;57.62;100619.69;5005685;28;19920;-90
2022/10/03 05:35:16;;;;;;;;;;;;;;;13.76;57.63;100624.28;5004463;28;19924;-89
2022/10/03 05:38:04;;;;;;;;;;;;;;;13.82;57.54;100631.69;4974053;28;19977;-89
2022/10/03 05:40:32;;;;;;;;;;;;;;;14.06;57.06;100626.03;4971108;28;20501;-90
2022/10/03 05:43:14;;;;;;;;;;;;;;;15.41;53.27;100622.97;4979009;28;19917;-92
2022/10/03 05:45:45;;;;;;;;;;;;;;;16.79;49.87;100627.94;4995680;28;19926;-90
2022/10/03 05:48:29;;;;;;;;;;;;;;;17.92;47.66;100629.00;5011077;28;20445;-91
2022/10/03 05:51:11;;;;;;;;;;;;;;;18.65;45.21;100622.56;5009989;28;19921;-91
2022/10/03 05:53:37;;;;;;;;;;;;;;;19.54;43.36;100618.13;5010412;28;19925;-92
2022/10/03 05:56:11;;;;;;;;;;;;;;;19.98;41.59;100624.53;5006674;28;19950;-91
2022/10/03 05:58:46;;;;;;;;;;;;;;;20.36;40.59;100623.50;5002169;28;20374;-90
2022/10/03 06:01:20;;;;;;;;;;;;;;;20.89;39.65;100629.47;4994664;28;19987;-93
2022/10/03 06:03:51;;;;;;;;;;;;;;;21.38;38.49;100624.78;5023887;28;19921;-90
2022/10/03 06:06:23;;;;;;;;;;;;;;;21.28;38.64;100631.66;5017437;28;19929;-89
2022/10/03 06:09:27;;;;;;;;;;;;;;;20.42;39.61;100639.00;5019558;28;19921;-91
2022/10/03 06:12:15;;;;;;;;;;;;;;;20.82;39.85;100638.56;4920148;29;20295;-95
2022/10/03 06:14:43;;;;;;;;;;;;;;;20.75;38.84;100643.28;4931144;29;20376;-87
2022/10/03 06:17:20;;;;;;;;;;;;;;;20.90;39.41;100639.31;4986158;28;19925;-89
2022/10/03 06:19:50;;;;;;;;;;;;;;;21.16;39.04;100638.94;4999008;28;19956;-87
2022/10/03 06:22:34;;;;;;;;;;;;;;;21.29;38.41;100636.03;4998753;28;19928;-86
2022/10/03 06:25:12;;;;;;;;;;;;;;;21.57;37.85;100637.34;5013937;28;19925;-88
2022/10/03 06:27:57;;;;;;;;;;;;;;;21.77;37.49;100633.47;5032511;28;19921;-87
2022/10/03 06:30:36;;;;;;;;;;;;;;;21.45;37.28;100629.13;5036664;28;20034;-90
2022/10/03 06:33:22;;;;;;;;;;;;;;;21.67;37.04;100634.03;5018349;28;20032;-90
2022/10/03 06:35:59;;;;;;;;;;;;;;;21.76;36.93;100626.31;4985184;28;20382;-89
2022/10/03 06:38:35;;;;;;;;;;;;;;;21.92;36.62;100631.09;5035350;28;19921;-88
2022/10/03 06:41:03;;;;;;;;;;;;;;;22.31;35.93;100631.47;5024223;28;20316;-90
2022/10/03 06:43:34;;;;;;;;;;;;;;;21.91;36.09;100634.91;5029045;28;19917;-89
2022/10/03 06:46:11;;;;;;;;;;;;;;;22.33;35.41;100638.38;5032636;28;20369;-88
2022/10/03 06:48:39;;;;;;;;;;;;;;;22.64;35.26;100640.97;5012943;28;19917;-88
2022/10/03 06:51:05;;;;;;;;;;;;;;;23.04;34.58;100641.03;5037699;28;19921;-89
2022/10/03 06:53:36;;;;;;;;;;;;;;;22.77;34.19;100633.31;5034722;28;20409;-88
2022/10/03 06:56:07;;;;;;;;;;;;;;;23.61;33.56;100645.63;5031713;28;19917;-87
2022/10/03 06:58:52;;;;;;;;;;;;;;;23.72;33.66;100643.91;5019661;28;19928;-92
2022/10/03 07:01:27;;;;;;;;;;;;;;;23.56;32.93;100631.81;5008358;28;20364;-89
2022/10/03 07:04:01;;;;;;;;;;;;;;;22.41;34.19;100628.97;5032401;28;19921;-89
2022/10/03 07:06:27;;;;;;;;;;;;;;;22.05;35.54;100625.38;5023472;28;20419;-89
2022/10/03 07:09:11;;;;;;;;;;;;;;;22.08;35.08;100618.63;5031307;28;20008;-90
2022/10/03 07:12:16;;;;;;;;;;;;;;;21.89;35.11;100631.56;5053475;28;19921;-89
2022/10/03 07:14:54;;;;;;;;;;;;;;;21.60;35.61;100627.84;4994123;28;20009;-88
2022/10/03 07:17:33;;;;;;;;;;;;;;;20.92;37.21;100637.19;4992378;28;19918;-88
2022/10/03 07:20:08;;;;;;;;;;;;;;;20.64;37.70;100641.31;5011685;28;19964;-89
2022/10/03 07:22:40;;;;;;;;;;;;;;;19.97;38.44;100636.50;5030166;28;19918;-88
2022/10/03 07:25:18;;;;;;;;;;;;;;;19.36;40.00;100642.59;5035607;28;19925;-88
2022/10/03 07:27:46;;;;;;;;;;;;;;;19.31;40.89;100647.84;5000597;28;19924;-90
2022/10/03 07:30:15;;;;;;;;;;;;;;;18.86;41.71;100647.88;5011372;28;19925;-88
2022/10/03 07:32:44;;;;;;;;;;;;;;;18.70;42.11;100643.72;5017543;28;20411;-88
2022/10/03 07:35:09;;;;;;;;;;;;;;;18.55;42.47;100639.38;5035612;28;19921;-91
2022/10/03 07:40:27;;;;;;;;;;;;;;;18.27;43.63;100626.03;5033528;28;19920;-89
2022/10/03 07:42:57;;;;;;;;;;;;;;;18.22;43.02;100625.84;5033964;28;19951;-88
2022/10/03 07:45:38;;;;;;;;;;;;;;;17.96;43.45;100624.00;5033162;28;19921;-87
2022/10/03 07:48:22;;;;;;;;;;;;;;;18.07;43.63;100617.06;5019673;28;19921;-88
2022/10/03 07:50:51;;;;;;;;;;;;;;;18.23;43.77;100608.47;5027216;28;19925;-88
2022/10/03 07:53:16;;;;;;;;;;;;;;;18.27;43.71;100604.25;5000152;28;19968;-88
2022/10/03 07:55:58;;;;;;;;;;;;;;;18.44;43.64;100609.25;5032129;28;19921;-87
2022/10/03 07:58:43;;;;;;;;;;;;;;;18.38;43.90;100601.94;5012636;28;19933;-88
2022/10/03 08:01:27;;;;;;;;;;;;;;;18.44;43.78;100609.25;5015074;28;19921;-88
2022/10/03 08:03:52;;;;;;;;;;;;;;;18.50;43.75;100601.06;5034161;28;19921;-88
2022/10/03 08:06:25;;;;;;;;;;;;;;;18.28;43.42;100589.59;5016166;28;20407;-87
2022/10/03 08:09:09;;;;;;;;;;;;;;;18.24;43.68;100588.38;5026828;28;19921;-87
2022/10/03 08:11:40;;;;;;;;;;;;;;;18.12;44.02;100584.63;5022887;28;19925;-89
2022/10/03 08:14:23;;;;;;;;;;;;;;;18.35;44.33;100579.56;5027704;28;19925;-89
2022/10/03 08:16:49;;;;;;;;;;;;;;;18.12;43.58;100568.28;5033783;28;19940;-90
2022/10/03 08:19:17;;;;;;;;;;;;;;;18.01;43.95;100568.97;5032718;28;19921;-89
2022/10/03 08:22:04;;;;;;;;;;;;;;;18.08;43.96;100567.91;5033447;28;19924;-90
2022/10/03 08:24:36;;;;;;;;;;;;;;;18.05;43.87;100562.03;5008483;28;19925;-89
2022/10/03 08:27:01;;;;;;;;;;;;;;;17.99;43.71;100562.91;5037362;28;20016;-88
2022/10/03 08:29:26;;;;;;;;;;;;;;;17.84;44.19;100563.97;5033089;28;20365;-88
2022/10/03 08:32:11;;;;;;;;;;;;;;;17.83;44.13;100554.13;5034540;28;19921;-88
2022/10/03 08:34:52;;;;;;;;;;;;;;;17.69;44.26;100541.56;5013718;28;20304;-89
2022/10/03 08:37:37;;;;;;;;;;;;;;;17.57;44.01;100546.78;5013617;28;19917;-88
2022/10/03 08:40:02;;;;;;;;;;;;;;;17.69;43.91;100549.72;5045271;28;19950;-87
2022/10/03 08:42:34;;;;;;;;;;;;;;;17.50;44.62;100552.22;5033421;28;19921;-87
2022/10/03 08:45:02;;;;;;;;;;;;;;;17.41;44.62;100555.38;5037571;28;20377;-88
2022/10/03 08:47:36;;;;;;;;;;;;;;;17.61;44.41;100560.81;5037786;28;20324;-87
2022/10/03 08:50:20;;;;;;;;;;;;;;;17.55;44.61;100565.19;5036828;28;19929;-89
2022/10/03 08:53:04;;;;;;;;;;;;;;;17.76;45.02;100561.41;5034629;28;19917;-88
2022/10/03 08:55:29;;;;;;;;;;;;;;;17.91;44.22;100567.50;5001755;28;19972;-90
2022/10/03 08:58:00;;;;;;;;;;;;;;;17.89;44.63;100566.88;5033414;28;19930;-90
2022/10/03 09:00:36;;;;;;;;;;;;;;;17.98;44.08;100570.22;5034575;28;19917;-89
2022/10/03 09:03:10;;;;;;;;;;;;;;;18.02;43.75;100566.00;5000095;28;20078;-91
2022/10/03 09:05:57;;;;;;;;;;;;;;;17.79;44.08;100574.59;5014167;28;19956;-90
2022/10/03 09:08:41;;;;;;;;;;;;;;;17.87;44.35;100571.69;5023315;28;20000;-89
2022/10/03 09:11:06;;;;;;;;;;;;;;;17.95;43.98;100581.50;5032176;28;19960;-92
2022/10/03 09:13:44;;;;;;;;;;;;;;;18.06;44.59;100578.16;5034440;28;19921;-90
2022/10/03 09:16:17;;;;;;;;;;;;;;;18.34;44.45;100588.75;5033069;28;19917;-90
2022/10/03 09:19:00;;;;;;;;;;;;;;;18.54;43.98;100593.28;5034917;28;20373;-91
2022/10/03 09:21:50;;;;;;;;;;;;;;;18.54;44.78;100582.41;5010931;28;19921;-88
2022/10/03 09:24:27;;;;;;;;;;;;;;;18.59;43.72;100596.22;5011075;28;19988;-89
2022/10/03 09:27:02;;;;;;;;;;;;;;;18.87;43.73;100595.06;5013948;28;19940;-91
2022/10/03 09:29:33;;;;;;;;;;;;;;;18.80;43.79;100597.00;5026936;28;19989;-90
2022/10/03 09:32:04;;;;;;;;;;;;;;;18.54;44.23;100601.47;5028516;28;19984;-91
2022/10/03 09:34:49;;;;;;;;;;;;;;;18.22;44.59;100601.34;5037435;28;19922;-91
2022/10/03 09:37:17;;;;;;;;;;;;;;;18.03;45.26;100602.22;5045830;28;19964;-92
2022/10/03 09:39:45;;;;;;;;;;;;;;;17.88;46.93;100597.81;5056143;28;19979;-89
2022/10/03 09:42:16;;;;;;;;;;;;;;;17.98;47.62;100599.28;5034961;28;19921;-93
2022/10/03 09:44:48;;;;;;;;;;;;;;;17.65;48.84;100617.28;5049445;28;19917;-92
2022/10/03 09:47:23;;;;;;;;;;;;;;;17.30;49.51;100605.72;5029656;28;19984;-92
2022/10/03 09:49:48;;;;;;;;;;;;;;;17.09;52.20;100607.56;5041822;28;19917;-90
2022/10/03 09:52:13;;;;;;;;;;;;;;;16.89;52.40;100617.53;5044800;28;20308;-90
2022/10/03 09:54:46;;;;;;;;;;;;;;;16.81;54.84;100625.84;5042043;28;19928;-92
2022/10/03 09:57:14;;;;;;;;;;;;;;;16.78;55.93;100618.09;5036547;28;20588;-91
2022/10/03 09:59:59;;;;;;;;;;;;;;;16.67;56.66;100625.78;5028319;28;19922;-91
2022/10/03 10:02:45;;;;;;;;;;;;;;;16.40;59.81;100616.66;5033337;28;19924;-91
2022/10/03 10:05:29;;;;;;;;;;;;;;;16.28;59.17;100612.00;5017990;28;19925;-90
2022/10/03 10:08:12;;;;;;;;;;;;;;;16.21;59.84;100620.09;5040292;28;19944;-90
2022/10/03 10:10:51;;;;;;;;;;;;;;;16.01;59.78;100622.66;5037092;28;19921;-91
2022/10/03 10:13:17;;;;;;;;;;;;;;;15.77;61.86;100613.91;5038642;28;19921;-92
2022/10/03 10:15:42;;;;;;;;;;;;;;;15.86;62.12;100616.50;5044674;28;19920;-90
2022/10/03 10:18:26;;;;;;;;;;;;;;;15.80;62.42;100613.56;5051519;28;20005;-90
2022/10/03 10:21:10;;;;;;;;;;;;;;;15.80;63.83;100616.25;5054112;28;19932;-91
2022/10/03 10:23:55;;;;;;;;;;;;;;;15.61;63.65;100616.88;5048609;28;19951;-93
2022/10/03 10:26:23;;;;;;;;;;;;;;;15.46;63.56;100616.97;5045100;28;19944;-93
2022/10/03 10:29:09;;;;;;;;;;;;;;;15.29;66.16;100616.38;5035585;28;19921;-93
2022/10/03 10:31:58;;;;;;;;;;;;;;;15.15;66.49;100620.81;5035688;28;19901;-95
2022/10/03 10:34:46;;;;;;;;;;;;;;;15.01;66.77;100618.16;5027865;28;19921;-95
2022/10/03 10:37:18;;;;;;;;;;;;;;;15.07;68.07;100606.56;5029112;28;19917;-95
2022/10/03 10:39:55;;;;;;;;;;;;;;;15.04;67.91;100617.78;5029094;28;19921;-95
2022/10/03 10:42:39;;;;;;;;;;;;;;;15.20;67.54;100606.72;5032126;28;19971;-91
2022/10/03 10:45:05;;;;;;;;;;;;;;;15.15;68.30;100610.00;5044152;28;19931;-93
2022/10/03 10:47:49;;;;;;;;;;;;;;;15.19;68.42;100605.00;5038863;28;19948;-93
2022/10/03 10:50:29;;;;;;;;;;;;;;;15.46;69.12;100602.59;5046339;28;19917;-95
2022/10/03 10:53:14;;;;;;;;;;;;;;;15.51;68.01;100592.81;5031312;28;19973;-93
2022/10/03 10:55:42;;;;;;;;;;;;;;;15.68;68.52;100581.72;5049807;28;19973;-94
2022/10/03 10:58:24;;;;;;;;;;;;;;;15.85;68.22;100590.41;5054964;28;19948;-93
2022/10/03 11:00:55;;;;;;;;;;;;;;;15.96;68.04;100588.00;5007840;28;20377;-93
2022/10/03 11:03:40;;;;;;;;;;;;;;;15.92;67.93;100585.88;5023717;28;19984;-95
2022/10/03 11:06:21;;;;;;;;;;;;;;;16.03;67.07;100585.34;5023431;28;19940;-93
2022/10/03 11:09:05;;;;;;;;;;;;;;;15.91;68.00;100576.91;5024047;28;19980;-94
2022/10/03 11:11:38;;;;;;;;;;;;;;;16.10;67.67;100575.38;5024845;28;20384;-93
2022/10/03 11:14:23;;;;;;;;;;;;;;;16.09;68.10;100573.69;5009361;28;19921;-96
2022/10/03 11:17:07;;;;;;;;;;;;;;;16.30;67.63;100574.66;5024718;28;20415;-94
2022/10/03 11:19:40;;;;;;;;;;;;;;;16.61;67.77;100572.28;5027173;28;19928;-93
2022/10/03 11:22:06;;;;;;;;;;;;;;;16.76;67.33;100565.88;5028994;28;19925;-96
2022/10/03 11:24:50;;;;;;;;;;;;;;;16.89;66.05;100565.94;5026085;28;19932;-96
2022/10/03 11:27:18;;;;;;;;;;;;;;;16.96;63.79;100568.69;5011257;28;19928;-92
2022/10/03 11:30:03;;;;;;;;;;;;;;;16.87;64.87;100577.00;5007404;28;19921;-95
2022/10/03 11:32:28;;;;;;;;;;;;;;;16.85;64.47;100568.22;5008371;28;19967;-93
2022/10/03 11:35:06;;;;;;;;;;;;;;;16.85;64.46;100567.38;5047459;28;19984;-94
2022/10/03 11:37:45;;;;;;;;;;;;;;;16.52;65.23;100564.53;5019406;28;19947;-94
2022/10/03 11:40:16;;;;;;;;;;;;;;;16.72;64.88;100557.31;5023585;28;19921;-94
2022/10/03 11:43:00;;;;;;;;;;;;;;;16.72;64.18;100553.75;5023880;28;19917;-94
2022/10/03 11:45:28;;;;;;;;;;;;;;;16.91;64.56;100555.72;5025556;28;19921;-95
2022/10/03 11:48:01;;;;;;;;;;;;;;;16.51;65.86;100549.28;5016998;28;19918;-94
2022/10/03 11:50:35;;;;;;;;;;;;;;;16.53;66.01;100556.19;5007413;28;19925;-92
2022/10/03 11:53:09;;;;;;;;;;;;;;;16.58;66.48;100555.59;5024995;28;19917;-91
2022/10/03 11:55:39;;;;;;;;;;;;;;;16.83;65.55;100554.03;5020608;28;19920;-93
2022/10/03 11:58:14;;;;;;;;;;;;;;;16.91;66.08;100554.88;5039813;28;19946;-93
2022/10/03 12:00:40;;;;;;;;;;;;;;;16.80;67.24;100553.59;5051677;28;19921;-94
2022/10/03 12:03:15;;;;;;;;;;;;;;;16.88;66.18;100556.13;5032491;28;20355;-96
2022/10/03 12:09:06;;;;;;;;;;;;;;;17.02;65.65;100551.53;5042807;28;19928;-95
2022/10/03 12:11:35;;;;;;;;;;;;;;;17.43;63.87;100548.69;5023899;28;19962;-93
2022/10/03 12:14:00;;;;;;;;;;;;;;;17.49;62.37;100545.13;5007793;28;20078;-95
2022/10/03 12:16:29;;;;;;;;;;;;;;;17.53;62.35;100550.97;5015178;28;19921;-96
2022/10/03 12:19:23;;;;;;;;;;;;;;;17.81;62.64;100545.34;5008887;28;19957;-93
2022/10/03 12:22:02;;;;;;;;;;;;;;;17.86;61.34;100547.41;5005757;28;19952;-94
2022/10/03 12:24:28;;;;;;;;;;;;;;;17.61;61.72;100544.50;5030322;28;19917;-95
2022/10/03 12:27:09;;;;;;;;;;;;;;;17.65;61.26;100553.91;5051691;28;19928;-93
2022/10/03 12:29:37;;;;;;;;;;;;;;;17.53;60.63;100537.38;5046981;28;19921;-93
2022/10/03 12:32:16;;;;;;;;;;;;;;;17.41;60.91;100533.63;5039666;28;19921;-94
2022/10/03 12:34:43;;;;;;;;;;;;;;;17.59;61.13;100533.00;5024983;28;20398;-93
2022/10/03 12:37:20;;;;;;;;;;;;;;;17.49;60.26;100536.97;5037888;28;19940;-93
2022/10/03 12:39:51;;;;;;;;;;;;;;;17.57;59.87;100535.09;5024634;28;19921;-94
2022/10/03 12:42:29;;;;;;;;;;;;;;;17.68;59.26;100529.84;5041516;28;19924;-94
2022/10/03 12:45:07;;;;;;;;;;;;;;;18.08;57.59;100543.41;5039218;28;19917;-94
2022/10/03 12:47:45;;;;;;;;;;;;;;;18.03;56.84;100548.66;5037374;28;19928;-93
2022/10/03 12:50:21;;;;;;;;;;;;;;;17.85;56.99;100552.03;5054863;28;19948;-94
2022/10/03 12:53:12;;;;;;;;;;;;;;;17.63;57.57;100570.44;5021087;28;19956;-92
2022/10/03 12:55:37;;;;;;;;;;;;;;;17.63;58.35;100564.13;5044240;28;19952;-93
2022/10/03 12:58:21;;;;;;;;;;;;;;;17.37;58.56;100549.53;5034073;28;19925;-92
2022/10/03 13:00:56;;;;;;;;;;;;;;;17.04;59.72;100552.19;5051205;28;19909;-91
2022/10/03 13:04:04;;;;;;;;;;;;;;;17.04;59.97;100555.75;5040141;28;20619;-93
2022/10/03 13:06:33;;;;;;;;;;;;;;;16.91;60.34;100557.59;4996286;28;20008;-92
2022/10/03 13:08:58;;;;;;;;;;;;;;;16.70;60.56;100543.09;4964478;28;20386;-92
2022/10/03 13:11:42;;;;;;;;;;;;;;;16.77;60.63;100553.97;5019447;28;19913;-92
2022/10/03 13:14:27;;;;;;;;;;;;;;;16.88;59.92;100545.28;5036823;28;20032;-92
2022/10/03 13:17:11;;;;;;;;;;;;;;;16.86;60.06;100552.78;5033873;28;20451;-92
2022/10/03 13:19:56;;;;;;;;;;;;;;;16.86;60.49;100548.19;5035418;28;19995;-91
2022/10/03 13:22:40;;;;;;;;;;;;;;;16.84;60.49;100544.84;5024505;28;19967;-90
2022/10/03 13:25:17;;;;;;;;;;;;;;;16.65;60.55;100546.41;5033976;28;20035;-92
2022/10/03 13:27:45;;;;;;;;;;;;;;;16.64;60.85;100552.03;5015741;28;19921;-92